Time;durP1;ratioP1;P1;durP2;ratioP2;P2;SDS_P1;SDS_P2;PMS_P1;PMS_P2;Temp;Humidity;BMP_temperature;BMP_pressure;BME280_temperature;BME280_humidity;BME280_pressure;Samples;Min_cycle;Max_cycle;Signal;HPM_P1;HPM_P2
2022/08/13 00:01:38;;;;;;;15.27;10.48;;;24.00;99.90;;;;;;5054097;28;20037;-58
2022/08/13 00:04:08;;;;;;;17.20;10.43;;;24.00;99.90;;;;;;5053609;28;20429;-58
2022/08/13 00:09:05;;;;;;;14.80;9.57;;;23.80;99.90;;;;;;5053880;28;20037;-58
2022/08/13 00:14:16;;;;;;;13.68;9.70;;;23.70;99.90;;;;;;5054111;28;20512;-58
2022/08/13 00:16:42;;;;;;;14.70;10.02;;;23.70;99.90;;;;;;5053456;28;20033;-58
2022/08/13 00:19:08;;;;;;;18.40;9.85;;;23.70;99.90;;;;;;5053692;28;20497;-59
2022/08/13 00:21:34;;;;;;;15.25;9.85;;;23.70;99.90;;;;;;5053666;28;20025;-58
2022/08/13 00:24:00;;;;;;;12.98;9.23;;;23.70;99.90;;;;;;5053716;28;20474;-58
2022/08/13 00:26:27;;;;;;;13.93;9.20;;;23.70;99.90;;;;;;5053708;28;20036;-59
2022/08/13 00:28:54;;;;;;;11.55;8.82;;;23.70;99.90;;;;;;5053598;28;20107;-58
2022/08/13 00:31:21;;;;;;;15.13;9.20;;;23.70;99.90;;;;;;5053283;28;20392;-58
2022/08/13 00:33:47;;;;;;;14.35;9.10;;;23.60;99.90;;;;;;5053523;28;20108;-58
2022/08/13 00:36:13;;;;;;;14.60;9.05;;;23.60;99.90;;;;;;5053482;28;20110;-58
2022/08/13 00:38:44;;;;;;;15.70;9.02;;;23.60;99.90;;;;;;5053169;28;20035;-58
2022/08/13 00:41:13;;;;;;;14.75;8.65;;;23.40;99.90;;;;;;5053304;28;20036;-57
2022/08/13 00:43:39;;;;;;;11.90;8.95;;;23.40;99.90;;;;;;5053235;28;20072;-58
2022/08/13 00:46:05;;;;;;;15.98;9.25;;;23.40;99.90;;;;;;5053008;28;20401;-58
2022/08/13 00:48:46;;;;;;;12.93;9.20;;;23.30;99.90;;;;;;5053291;28;20052;-57
2022/08/13 00:51:13;;;;;;;12.38;8.75;;;23.30;99.90;;;;;;5053332;28;20021;-58
2022/08/13 00:53:40;;;;;;;14.85;9.10;;;23.30;99.90;;;;;;5053037;28;20036;-58
2022/08/13 00:56:08;;;;;;;12.88;8.55;;;23.30;99.90;;;;;;5053077;28;20562;-58
2022/08/13 00:58:35;;;;;;;12.80;8.00;;;23.30;99.90;;;;;;5052878;28;20110;-58
2022/08/13 01:01:03;;;;;;;17.17;9.05;;;23.30;99.90;;;;;;5052669;28;20043;-58
2022/08/13 01:03:31;;;;;;;15.60;9.00;;;23.30;99.90;;;;;;5052262;28;20021;-58
2022/08/13 01:06:00;;;;;;;12.02;7.90;;;23.30;99.90;;;;;;5052952;28;20049;-57
2022/08/13 01:08:31;;;;;;;12.45;8.55;;;23.30;99.90;;;;;;5052839;28;20506;-58
2022/08/13 01:11:01;;;;;;;12.98;8.60;;;23.30;99.90;;;;;;5052866;28;20040;-58
2022/08/13 01:13:28;;;;;;;14.50;8.55;;;23.30;99.90;;;;;;5052671;28;20029;-58
2022/08/13 01:15:56;;;;;;;13.43;8.55;;;23.20;99.90;;;;;;5052318;28;20029;-58
2022/08/13 01:18:24;;;;;;;14.02;8.90;;;23.30;99.90;;;;;;5052544;28;20037;-58
2022/08/13 01:20:59;;;;;;;14.27;8.50;;;23.30;99.90;;;;;;5052672;28;20032;-58
2022/08/13 01:23:25;;;;;;;14.82;8.73;;;23.30;99.90;;;;;;5052696;28;20025;-58
2022/08/13 01:25:54;;;;;;;13.70;9.13;;;23.30;99.90;;;;;;5052639;28;20036;-57
2022/08/13 01:28:27;;;;;;;13.32;8.73;;;23.30;99.90;;;;;;5052546;28;20495;-59
2022/08/13 01:30:54;;;;;;;13.75;8.68;;;23.30;99.90;;;;;;5052089;28;20508;-58
2022/08/13 01:33:23;;;;;;;16.50;9.13;;;23.30;99.90;;;;;;5052578;28;20528;-58
2022/08/13 01:35:49;;;;;;;13.18;8.43;;;23.30;99.90;;;;;;5052475;28;20444;-58
2022/08/13 01:38:15;;;;;;;14.65;9.25;;;23.30;99.90;;;;;;5052159;28;20099;-57
2022/08/13 01:40:45;;;;;;;11.23;8.18;;;23.30;99.90;;;;;;5052375;28;20112;-58
2022/08/13 01:43:11;;;;;;;16.30;9.63;;;23.30;99.90;;;;;;5052281;28;20059;-59
2022/08/13 01:45:37;;;;;;;13.02;9.45;;;23.30;99.90;;;;;;5052043;28;20033;-58
2022/08/13 01:50:49;;;;;;;14.10;9.75;;;23.30;99.90;;;;;;5052624;28;20125;-58
2022/08/13 01:53:16;;;;;;;14.27;8.98;;;23.30;99.90;;;;;;5051167;28;20078;-58
2022/08/13 01:55:43;;;;;;;14.27;9.63;;;23.30;99.90;;;;;;5052232;28;20025;-59
2022/08/13 01:58:16;;;;;;;14.23;9.95;;;23.30;99.90;;;;;;5051882;28;20032;-58
2022/08/13 02:00:45;;;;;;;12.85;9.30;;;23.30;99.90;;;;;;5052251;28;20563;-58
2022/08/13 02:03:12;;;;;;;15.90;9.68;;;23.30;99.90;;;;;;5052311;28;20047;-58
2022/08/13 02:05:39;;;;;;;13.57;9.30;;;23.40;99.90;;;;;;5051992;28;20025;-58
2022/08/13 02:08:11;;;;;;;14.23;9.23;;;23.40;99.90;;;;;;5052031;28;20093;-58
2022/08/13 02:10:42;;;;;;;12.55;9.45;;;23.40;99.90;;;;;;5052197;28;20036;-58
2022/08/13 02:13:16;;;;;;;12.68;9.00;;;23.40;99.90;;;;;;5052088;28;20090;-58
2022/08/13 02:15:42;;;;;;;;;;;23.40;99.90;;;;;;5056599;28;20104;-58
2022/08/13 02:18:17;;;;;;;16.13;9.52;;;23.40;99.90;;;;;;5056036;28;19958;-58
2022/08/13 02:20:45;;;;;;;12.65;9.18;;;23.40;99.90;;;;;;5056100;28;20071;-58
2022/08/13 02:23:16;;;;;;;15.52;9.45;;;23.40;99.90;;;;;;5056062;28;20020;-58
2022/08/13 02:25:45;;;;;;;13.88;10.00;;;23.40;99.90;;;;;;5055889;28;20060;-58
2022/08/13 02:28:15;;;;;;;13.27;9.60;;;23.40;99.90;;;;;;5055613;28;20064;-58
2022/08/13 02:30:42;;;;;;;13.13;10.00;;;23.40;99.90;;;;;;5055904;28;20460;-58
2022/08/13 02:33:08;;;;;;;15.68;10.20;;;23.40;99.90;;;;;;5056038;28;20397;-58
2022/08/13 02:35:35;;;;;;;11.82;9.88;;;23.40;99.90;;;;;;5055654;28;20036;-58
2022/08/13 02:38:02;;;;;;;15.15;10.18;;;23.40;99.90;;;;;;5055530;28;20082;-58
2022/08/13 02:43:12;;;;;;;13.93;9.73;;;23.40;99.90;;;;;;5055404;28;20087;-58
2022/08/13 02:45:39;;;;;;;15.15;10.23;;;23.40;99.90;;;;;;5055473;28;20040;-58
2022/08/13 02:48:08;;;;;;;12.27;9.10;;;23.30;99.90;;;;;;5055591;28;20033;-58
2022/08/13 02:50:42;;;;;;;14.00;10.07;;;23.40;99.90;;;;;;5055475;28;20053;-58
2022/08/13 02:53:09;;;;;;;17.15;9.63;;;23.40;99.90;;;;;;5055422;28;20045;-58
2022/08/13 02:55:36;;;;;;;14.80;9.65;;;23.40;99.90;;;;;;5055301;28;20482;-58
2022/08/13 02:58:04;;;;;;;16.77;9.95;;;23.40;99.90;;;;;;5053822;28;20456;-58
2022/08/13 03:00:31;;;;;;;12.77;10.18;;;23.40;99.90;;;;;;5055434;28;20053;-58
2022/08/13 03:02:57;;;;;;;15.27;10.80;;;23.40;99.90;;;;;;5055205;28;20025;-58
2022/08/13 03:05:23;;;;;;;12.48;9.65;;;23.40;99.90;;;;;;5055206;28;20037;-58
2022/08/13 03:07:50;;;;;;;15.20;10.40;;;23.40;99.90;;;;;;5055099;28;20426;-58
2022/08/13 03:10:18;;;;;;;14.13;10.38;;;23.40;99.90;;;;;;5054810;28;20029;-58
2022/08/13 03:12:48;;;;;;;11.10;9.80;;;23.40;99.90;;;;;;5055358;28;20481;-58
2022/08/13 03:15:17;;;;;;;14.93;10.15;;;23.40;99.90;;;;;;5054886;28;20029;-58
2022/08/13 03:17:43;;;;;;;11.27;9.48;;;23.40;99.90;;;;;;5054950;28;20017;-58
2022/08/13 03:20:16;;;;;;;11.70;9.50;;;23.30;99.90;;;;;;5054874;28;20106;-58
2022/08/13 03:22:56;;;;;;;13.15;10.23;;;23.30;99.90;;;;;;5054816;28;20029;-58
2022/08/13 03:25:25;;;;;;;11.75;10.10;;;23.40;99.90;;;;;;5053830;28;20063;-58
2022/08/13 03:27:53;;;;;;;13.25;9.60;;;23.40;99.90;;;;;;5054859;28;20029;-58
2022/08/13 03:30:22;;;;;;;17.50;10.52;;;23.40;99.90;;;;;;5054690;28;20120;-58
2022/08/13 03:32:49;;;;;;;15.45;9.85;;;23.30;99.90;;;;;;5054691;28;20385;-58
2022/08/13 03:35:20;;;;;;;16.63;10.65;;;23.40;99.90;;;;;;5054679;28;20029;-58
2022/08/13 03:37:53;;;;;;;15.15;9.90;;;23.40;99.90;;;;;;5054614;28;20031;-58
2022/08/13 03:40:24;;;;;;;15.30;9.93;;;23.40;99.90;;;;;;5054325;28;20033;-59
2022/08/13 03:42:51;;;;;;;15.75;9.82;;;23.40;99.90;;;;;;5054318;28;20059;-58
2022/08/13 03:45:18;;;;;;;13.63;10.43;;;23.40;99.90;;;;;;5053179;28;20052;-58
2022/08/13 03:47:45;;;;;;;11.77;9.15;;;23.40;99.90;;;;;;5054317;28;20033;-58
2022/08/13 03:50:12;;;;;;;15.40;10.25;;;23.40;99.90;;;;;;5054288;28;20508;-58
2022/08/13 03:52:39;;;;;;;12.43;10.43;;;23.40;99.90;;;;;;5054285;28;20079;-58
2022/08/13 03:55:09;;;;;;;14.35;11.77;;;23.40;99.90;;;;;;5052593;28;20494;-58
2022/08/13 03:57:40;;;;;;;13.02;10.40;;;23.40;99.90;;;;;;5054137;28;20021;-58
2022/08/13 04:00:11;;;;;;;12.13;9.93;;;23.40;99.90;;;;;;5054056;28;20025;-58
2022/08/13 04:02:40;;;;;;;14.98;10.98;;;23.40;99.90;;;;;;5054267;28;20017;-58
2022/08/13 04:05:09;;;;;;;19.17;10.75;;;23.40;99.90;;;;;;5054019;28;20040;-58
2022/08/13 04:07:34;;;;;;;14.10;10.63;;;23.30;99.90;;;;;;5053892;28;20021;-58
2022/08/13 04:10:00;;;;;;;13.65;10.63;;;23.30;99.90;;;;;;5053628;28;20120;-58
2022/08/13 04:12:27;;;;;;;14.38;11.18;;;23.30;99.90;;;;;;5053959;28;20086;-58
2022/08/13 04:14:54;;;;;;;19.92;10.45;;;23.30;99.90;;;;;;5053795;28;20481;-58
2022/08/13 04:17:19;;;;;;;12.25;10.50;;;23.30;99.90;;;;;;5053952;28;20021;-58
2022/08/13 04:19:45;;;;;;;13.25;11.38;;;23.30;99.90;;;;;;5053802;28;20079;-59
2022/08/13 04:22:12;;;;;;;14.45;11.43;;;23.30;99.90;;;;;;5053881;28;20469;-58
2022/08/13 04:24:38;;;;;;;14.05;11.07;;;23.30;99.90;;;;;;5053361;28;20033;-58
2022/08/13 04:27:04;;;;;;;13.27;10.60;;;23.20;99.90;;;;;;5053571;28;20042;-58
2022/08/13 04:29:30;;;;;;;19.50;11.27;;;23.20;99.90;;;;;;5053696;28;20028;-59
2022/08/13 04:31:56;;;;;;;14.00;10.80;;;23.20;99.90;;;;;;5053533;28;20073;-58
2022/08/13 04:34:25;;;;;;;14.52;11.05;;;23.20;99.90;;;;;;5053503;28;20541;-58
2022/08/13 04:36:51;;;;;;;15.15;11.73;;;23.20;99.90;;;;;;5052517;28;20029;-58
2022/08/13 04:39:17;;;;;;;12.98;11.10;;;23.20;99.90;;;;;;5052859;28;20044;-58
2022/08/13 04:41:43;;;;;;;16.23;9.95;;;23.10;99.90;;;;;;5053320;28;20025;-58
2022/08/13 04:44:08;;;;;;;13.88;11.25;;;23.10;99.90;;;;;;5053088;28;20437;-58
2022/08/13 04:46:34;;;;;;;13.13;11.15;;;23.10;99.90;;;;;;5053392;28;20017;-58
2022/08/13 04:49:00;;;;;;;14.57;11.45;;;23.10;99.90;;;;;;5052084;28;20075;-58
2022/08/13 04:51:26;;;;;;;17.77;11.27;;;23.00;99.90;;;;;;5053209;28;20095;-58
2022/08/13 04:53:52;;;;;;;13.00;11.20;;;23.00;99.90;;;;;;5052745;28;20033;-58
2022/08/13 04:56:18;;;;;;;15.23;11.68;;;23.00;99.90;;;;;;5053094;28;20017;-58
2022/08/13 04:58:45;;;;;;;13.40;11.10;;;23.00;99.90;;;;;;5053072;28;20032;-58
2022/08/13 05:01:11;;;;;;;14.50;11.57;;;23.00;99.90;;;;;;5053165;28;20074;-58
2022/08/13 05:03:39;;;;;;;17.17;11.82;;;22.90;99.90;;;;;;5053014;28;20031;-57
2022/08/13 05:06:06;;;;;;;17.35;12.38;;;22.90;99.90;;;;;;5052768;28;20040;-58
2022/08/13 05:08:33;;;;;;;13.80;11.20;;;22.90;99.90;;;;;;5052580;28;20108;-58
2022/08/13 05:10:59;;;;;;;16.55;11.63;;;22.90;99.90;;;;;;5052932;28;20068;-58
2022/08/13 05:13:29;;;;;;;17.70;11.70;;;22.90;99.90;;;;;;5052777;28;20495;-58
2022/08/13 05:15:59;;;;;;;17.45;11.98;;;22.90;99.90;;;;;;5052791;28;20028;-58
2022/08/13 05:18:27;;;;;;;15.30;12.10;;;22.90;99.90;;;;;;5052661;28;20041;-58
2022/08/13 05:20:53;;;;;;;15.20;12.35;;;22.90;99.90;;;;;;5052289;28;20029;-58
2022/08/13 05:23:20;;;;;;;13.93;11.68;;;22.90;99.90;;;;;;5052733;28;20078;-57
2022/08/13 05:25:46;;;;;;;15.88;11.90;;;22.80;99.90;;;;;;5051344;28;20377;-58
2022/08/13 05:28:12;;;;;;;14.63;12.07;;;22.80;99.90;;;;;;5052622;28;20024;-58
2022/08/13 05:30:39;;;;;;;13.27;11.88;;;22.80;99.90;;;;;;5052491;28;20040;-58
2022/08/13 05:33:31;;;;;;;16.45;12.00;;;22.90;99.90;;;;;;5052450;28;20040;-58
2022/08/13 05:36:01;;;;;;;15.73;12.32;;;22.90;99.90;;;;;;5051191;28;20082;-58
2022/08/13 05:38:29;;;;;;;17.25;12.68;;;22.90;99.90;;;;;;5052292;28;20029;-58
2022/08/13 05:41:03;;;;;;;19.08;13.48;;;22.90;99.90;;;;;;5052326;28;20029;-58
2022/08/13 05:43:33;;;;;;;14.82;12.52;;;22.90;99.90;;;;;;5052188;28;20132;-58
2022/08/13 05:46:05;;;;;;;15.65;12.48;;;22.90;99.90;;;;;;5052331;28;20017;-58
2022/08/13 05:48:35;;;;;;;14.43;12.35;;;22.90;99.90;;;;;;5052071;28;20021;-58
2022/08/13 05:51:04;;;;;;;15.60;11.95;;;22.90;99.90;;;;;;5051904;28;20029;-58
2022/08/13 05:53:32;;;;;;;17.75;11.98;;;22.90;99.90;;;;;;5052205;28;20400;-58
2022/08/13 05:55:58;;;;;;;14.25;12.70;;;22.90;99.90;;;;;;5052208;28;20478;-58
2022/08/13 05:58:24;;;;;;;15.77;12.52;;;22.90;99.90;;;;;;5052228;28;20043;-58
2022/08/13 06:03:36;;;;;;;13.50;11.65;;;23.00;99.90;;;;;;5052494;28;20062;-58
2022/08/13 06:06:09;;;;;;;14.95;12.20;;;23.00;99.90;;;;;;5052020;28;20405;-58
2022/08/13 06:08:37;;;;;;;18.20;12.57;;;23.10;99.90;;;;;;5052336;28;20013;-58
2022/08/13 06:11:10;;;;;;;13.85;11.60;;;23.20;99.90;;;;;;5052200;28;20549;-58
2022/08/13 06:13:40;;;;;;;16.83;11.93;;;23.30;99.90;;;;;;5052144;28;20021;-58
2022/08/13 06:16:10;;;;;;;14.10;12.20;;;23.40;99.90;;;;;;5052099;28;20022;-58
2022/08/13 06:18:40;;;;;;;15.02;12.43;;;23.60;99.90;;;;;;5052083;28;20035;-58
2022/08/13 06:21:09;;;;;;;14.32;11.80;;;23.70;99.90;;;;;;5051724;28;20033;-58
2022/08/13 06:23:37;;;;;;;16.42;11.85;;;23.80;99.90;;;;;;5052080;28;20029;-58
2022/08/13 06:26:04;;;;;;;14.95;11.90;;;23.90;99.90;;;;;;5052165;28;20033;-58
2022/08/13 06:28:32;;;;;;;12.38;10.98;;;23.90;99.90;;;;;;5052033;28;20033;-58
2022/08/13 06:31:10;;;;;;;13.57;11.32;;;24.10;99.90;;;;;;5051985;28;20469;-58
2022/08/13 06:33:37;;;;;;;14.63;11.23;;;24.20;99.90;;;;;;5051600;28;20132;-58
2022/08/13 06:36:08;;;;;;;13.60;11.40;;;24.30;99.90;;;;;;5051955;28;20021;-58
2022/08/13 06:38:45;;;;;;;12.88;11.32;;;24.40;99.90;;;;;;5051758;28;20025;-58
2022/08/13 06:41:13;;;;;;;13.55;10.55;;;24.50;99.90;;;;;;5050666;28;20064;-58
2022/08/13 06:43:44;;;;;;;16.73;10.73;;;24.50;99.90;;;;;;5051504;28;20518;-58
2022/08/13 06:46:12;;;;;;;13.20;11.05;;;24.50;99.90;;;;;;5051823;28;20025;-58
2022/08/13 06:48:39;;;;;;;15.02;11.32;;;24.60;99.90;;;;;;5051492;28;20048;-58
2022/08/13 06:51:09;;;;;;;13.15;10.77;;;24.80;99.90;;;;;;5051743;28;20028;-58
2022/08/13 06:53:35;;;;;;;18.80;11.35;;;25.10;99.90;;;;;;5051599;28;20017;-58
2022/08/13 06:56:23;;;;;;;13.73;10.85;;;25.40;99.90;;;;;;5051483;28;20493;-58
2022/08/13 06:58:51;;;;;;;18.25;11.10;;;25.70;99.90;;;;;;5051569;28;20029;-58
2022/08/13 07:01:24;;;;;;;12.35;11.15;;;26.00;99.90;;;;;;5053759;28;20032;-58
2022/08/13 07:03:50;;;;;;;15.60;10.98;;;26.10;99.90;;;;;;5054796;28;20009;-58
2022/08/13 07:06:24;;;;;;;10.98;9.75;;;26.30;99.90;;;;;;5055168;28;20405;-58
2022/08/13 07:08:54;;;;;;;14.95;10.02;;;26.40;99.90;;;;;;5054991;28;20044;-58
2022/08/13 07:11:22;;;;;;;14.35;10.57;;;26.50;99.90;;;;;;5055061;28;20021;-58
2022/08/13 07:13:49;;;;;;;16.50;10.27;;;26.50;99.90;;;;;;5054978;28;20032;-58
2022/08/13 07:16:16;;;;;;;16.10;10.90;;;26.50;99.90;;;;;;5054870;28;20029;-58
2022/08/13 07:18:43;;;;;;;12.45;10.63;;;26.50;99.90;;;;;;5054603;28;20033;-58
2022/08/13 07:21:10;;;;;;;12.98;10.32;;;26.40;99.90;;;;;;5054896;28;20021;-58
2022/08/13 07:23:38;;;;;;;15.50;10.55;;;26.40;99.90;;;;;;5053517;28;20056;-59
2022/08/13 07:26:05;;;;;;;15.57;10.18;;;26.30;99.90;;;;;;5054882;28;20040;-58
2022/08/13 07:28:32;;;;;;;14.32;10.23;;;26.40;99.90;;;;;;5054671;28;20033;-58
2022/08/13 07:30:59;;;;;;;15.68;11.27;;;26.50;99.90;;;;;;5054742;28;20033;-58
2022/08/13 07:33:25;;;;;;;16.90;10.60;;;26.50;99.90;;;;;;5054290;28;20020;-58
2022/08/13 07:35:51;;;;;;;19.40;10.82;;;26.60;99.90;;;;;;5054713;28;20155;-58
2022/08/13 07:38:17;;;;;;;14.38;10.02;;;26.90;99.90;;;;;;5054317;28;20033;-58
2022/08/13 07:40:48;;;;;;;15.40;10.45;;;27.10;99.90;;;;;;5054554;28;20048;-58
2022/08/13 07:43:18;;;;;;;14.68;9.93;;;27.40;99.90;;;;;;5054364;28;20060;-66
2022/08/13 07:45:58;;;;;;;15.38;10.15;;;27.70;99.90;;;;;;5054574;28;20040;-65
2022/08/13 07:48:24;;;;;;;15.95;10.25;;;27.90;99.90;;;;;;5054624;28;20029;-66
2022/08/13 07:50:50;;;;;;;15.18;9.45;;;28.40;99.90;;;;;;5054636;28;20021;-65
2022/08/13 07:53:17;;;;;;;13.02;9.77;;;28.60;99.90;;;;;;5054607;28;20037;-64
2022/08/13 07:55:46;;;;;;;12.68;9.32;;;28.90;99.90;;;;;;5054489;28;20013;-65
2022/08/13 07:58:12;;;;;;;13.23;9.50;;;29.10;99.90;;;;;;5054349;28;20021;-65
2022/08/13 08:00:37;;;;;;;11.73;8.98;;;29.20;99.90;;;;;;5054132;28;20090;-65
2022/08/13 08:03:03;;;;;;;14.27;9.57;;;29.30;99.90;;;;;;5054341;28;20059;-64
2022/08/13 08:05:33;;;;;;;10.40;8.65;;;29.60;99.90;;;;;;5054357;28;20363;-64
2022/08/13 08:08:00;;;;;;;12.20;9.00;;;30.00;99.90;;;;;;5054304;28;20052;-64
2022/08/13 08:10:27;;;;;;;11.88;9.32;;;30.40;99.90;;;;;;5054236;28;20029;-64
2022/08/13 08:13:00;;;;;;;11.98;8.85;;;30.50;99.90;;;;;;5053930;28;20452;-65
2022/08/13 08:15:27;;;;;;;13.48;8.35;;;30.80;99.90;;;;;;5053806;28;20111;-64
2022/08/13 08:17:57;;;;;;;11.52;8.25;;;31.10;99.90;;;;;;5054238;28;20031;-64
2022/08/13 08:20:23;;;;;;;9.35;8.13;;;31.40;99.90;;;;;;5053797;28;20106;-65
2022/08/13 08:22:50;;;;;;;12.00;8.27;;;31.70;99.90;;;;;;5053981;28;20048;-64
2022/08/13 08:25:18;;;;;;;11.30;8.63;;;31.80;99.90;;;;;;5054007;28;20096;-64
2022/08/13 08:27:44;;;;;;;15.95;8.23;;;32.10;99.60;;;;;;5053875;28;20017;-64
2022/08/13 08:30:13;;;;;;;12.50;8.82;;;32.40;99.40;;;;;;5053394;28;20044;-64
2022/08/13 08:32:41;;;;;;;14.00;8.55;;;32.60;98.80;;;;;;5053808;28;20039;-64
2022/08/13 08:35:08;;;;;;;11.45;8.10;;;32.80;98.00;;;;;;5053752;28;20086;-64
2022/08/13 08:43:10;;;;;;;10.13;8.35;;;33.30;97.10;;;;;;5053328;28;20056;-64
2022/08/13 08:45:36;;;;;;;9.35;7.78;;;33.60;96.60;;;;;;5053123;28;20025;-64
2022/08/13 08:48:03;;;;;;;9.20;8.20;;;33.50;96.00;;;;;;5053372;28;20094;-65
2022/08/13 08:50:29;;;;;;;12.40;8.10;;;33.80;95.70;;;;;;5053408;28;20055;-64
2022/08/13 08:55:43;;;;;;;11.60;8.30;;;34.00;95.60;;;;;;5053591;28;20110;-64
2022/08/13 08:58:11;;;;;;;14.93;7.90;;;34.00;95.10;;;;;;5053129;28;20025;-64
2022/08/13 09:00:39;;;;;;;10.60;7.65;;;34.40;94.40;;;;;;5052985;28;20021;-64
2022/08/13 09:03:06;;;;;;;9.68;6.85;;;34.40;93.90;;;;;;5053185;28;20390;-64
2022/08/13 09:05:31;;;;;;;11.98;8.05;;;34.70;93.80;;;;;;5053144;28;20032;-64
2022/08/13 09:08:01;;;;;;;12.55;7.40;;;34.80;92.70;;;;;;5053110;28;20021;-64
2022/08/13 09:10:27;;;;;;;13.23;7.88;;;35.10;92.80;;;;;;5053052;28;20398;-64
2022/08/13 09:12:53;;;;;;;11.25;7.57;;;35.30;91.90;;;;;;5052672;28;20033;-63
2022/08/13 09:15:22;;;;;;;12.82;7.78;;;35.00;92.00;;;;;;5053106;28;20098;-64
2022/08/13 09:17:52;;;;;;;10.80;7.63;;;35.20;91.70;;;;;;5052898;28;20087;-64
2022/08/13 09:20:24;;;;;;;9.82;7.45;;;35.40;91.50;;;;;;5052798;28;20037;-64
2022/08/13 09:23:07;;;;;;;9.50;7.20;;;35.80;91.00;;;;;;5052351;28;20405;-64
2022/08/13 09:25:35;;;;;;;;;;;35.80;90.90;;;;;;5053300;28;20486;-65
2022/08/13 09:28:03;;;;;;;8.80;7.20;;;36.10;89.90;;;;;;5052526;28;20306;-64
2022/08/13 09:30:30;;;;;;;10.02;7.32;;;36.10;90.10;;;;;;5052761;28;20025;-64
2022/08/13 09:32:58;;;;;;;9.38;7.60;;;36.40;90.10;;;;;;5052664;28;20074;-64
2022/08/13 09:35:26;;;;;;;11.73;7.30;;;36.30;89.80;;;;;;5052781;28;20029;-64
2022/08/13 09:37:56;;;;;;;9.00;6.78;;;36.70;90.00;;;;;;5052611;28;20025;-64
2022/08/13 09:40:28;;;;;;;9.27;7.75;;;37.00;89.40;;;;;;5052577;28;20405;-64
2022/08/13 09:43:02;;;;;;;10.23;7.40;;;36.90;89.00;;;;;;5052108;28;20028;-63
2022/08/13 09:45:29;;;;;;;9.57;7.40;;;37.00;87.60;;;;;;5052553;28;20079;-64
2022/08/13 09:47:56;;;;;;;9.45;6.70;;;37.00;87.50;;;;;;5052579;28;20021;-64
2022/08/13 09:50:25;;;;;;;8.38;7.13;;;37.20;86.50;;;;;;5052480;28;20029;-64
2022/08/13 09:52:52;;;;;;;8.88;7.35;;;37.20;87.00;;;;;;5052468;28;20050;-64
2022/08/13 09:55:19;;;;;;;9.63;7.00;;;37.20;86.60;;;;;;5052462;28;20029;-64
2022/08/13 09:57:49;;;;;;;9.77;7.35;;;37.20;86.50;;;;;;5052162;28;20043;-64
2022/08/13 10:00:21;;;;;;;9.43;6.88;;;36.90;87.30;;;;;;5052366;28;20559;-64
2022/08/13 10:02:54;;;;;;;8.13;7.05;;;37.30;86.30;;;;;;5052283;28;20025;-64
2022/08/13 10:05:20;;;;;;;10.80;7.68;;;37.40;84.50;;;;;;5052453;28;20481;-64
2022/08/13 10:07:46;;;;;;;9.20;7.43;;;36.70;85.80;;;;;;5052357;28;20029;-64
2022/08/13 10:10:13;;;;;;;9.20;7.65;;;36.40;87.70;;;;;;5052329;28;20037;-64
2022/08/13 10:12:40;;;;;;;10.57;7.15;;;36.70;87.10;;;;;;5052069;28;20032;-64
2022/08/13 10:15:08;;;;;;;9.25;7.40;;;36.80;87.10;;;;;;5052323;28;20120;-64
2022/08/13 10:17:46;;;;;;;14.50;7.50;;;36.70;85.30;;;;;;5052202;28;20519;-65
2022/08/13 10:20:17;;;;;;;11.82;7.25;;;36.30;86.50;;;;;;5052296;28;20029;-64
2022/08/13 10:22:43;;;;;;;9.63;6.90;;;36.00;87.10;;;;;;5052298;28;20075;-63
2022/08/13 10:25:09;;;;;;;8.52;6.97;;;36.10;86.50;;;;;;5052237;28;20029;-64
2022/08/13 10:27:35;;;;;;;11.68;7.50;;;36.50;86.90;;;;;;5051835;28;20084;-64
2022/08/13 10:30:05;;;;;;;11.07;7.53;;;36.40;86.80;;;;;;5052186;28;20051;-64
2022/08/13 10:32:31;;;;;;;12.27;7.72;;;36.50;86.00;;;;;;5052018;28;20116;-64
2022/08/13 10:35:00;;;;;;;9.45;7.00;;;36.70;86.70;;;;;;5053796;28;20029;-63
2022/08/13 10:37:28;;;;;;;13.10;7.63;;;37.30;84.80;;;;;;5055898;28;20033;-64
2022/08/13 10:39:55;;;;;;;11.00;7.63;;;36.50;84.50;;;;;;5055578;28;20447;-64
2022/08/13 10:42:21;;;;;;;9.82;7.40;;;35.60;86.10;;;;;;5055857;28;20104;-64
2022/08/13 10:44:52;;;;;;;12.77;7.47;;;35.40;88.20;;;;;;5055836;28;20080;-63
2022/08/13 10:47:24;;;;;;;11.63;7.43;;;35.90;86.70;;;;;;5055841;28;20021;-63
2022/08/13 10:49:53;;;;;;;11.88;7.20;;;35.50;86.60;;;;;;5055892;28;20110;-63
2022/08/13 10:52:20;;;;;;;16.00;7.68;;;35.90;86.20;;;;;;5055711;28;20052;-63
2022/08/13 10:54:47;;;;;;;13.63;7.88;;;35.60;86.50;;;;;;5055238;28;20035;-63
2022/08/13 10:57:14;;;;;;;13.15;7.90;;;34.80;87.60;;;;;;5055656;28;20084;-63
2022/08/13 10:59:41;;;;;;;11.77;7.82;;;34.50;88.70;;;;;;5055490;28;20037;-63
2022/08/13 11:02:07;;;;;;;13.13;7.75;;;34.40;88.40;;;;;;5055624;28;20520;-64
2022/08/13 11:04:36;;;;;;;11.65;7.93;;;34.30;89.00;;;;;;5055562;28;20029;-63
2022/08/13 11:07:08;;;;;;;10.68;7.97;;;34.00;89.30;;;;;;5055483;28;20048;-64
2022/08/13 11:09:34;;;;;;;12.10;7.72;;;33.10;90.70;;;;;;5055025;28;20029;-64
2022/08/13 11:12:00;;;;;;;19.77;7.97;;;33.30;90.50;;;;;;5055274;28;20032;-63
2022/08/13 11:14:29;;;;;;;8.45;7.20;;;33.70;90.40;;;;;;5055243;28;20035;-64
2022/08/13 11:19:25;;;;;;;11.65;7.60;;;34.70;89.40;;;;;;5055142;28;20421;-64
2022/08/13 11:21:51;;;;;;;10.15;7.03;;;35.10;88.40;;;;;;5055128;28;20017;-63
2022/08/13 11:24:18;;;;;;;11.60;8.00;;;35.40;87.20;;;;;;5054850;28;20033;-63
2022/08/13 11:26:45;;;;;;;11.02;7.85;;;35.60;86.60;;;;;;5055068;28;20096;-64
2022/08/13 11:29:11;;;;;;;10.90;7.55;;;35.70;86.90;;;;;;5054894;28;20040;-64
2022/08/13 11:31:37;;;;;;;13.70;8.00;;;35.50;87.30;;;;;;5054968;28;20033;-64
2022/08/13 11:34:03;;;;;;;11.98;7.35;;;35.40;86.40;;;;;;5054947;28;20036;-64
2022/08/13 11:36:29;;;;;;;12.00;7.28;;;35.20;87.30;;;;;;5054837;28;20021;-64
2022/08/13 11:38:55;;;;;;;12.00;7.38;;;35.20;86.80;;;;;;5054373;28;20033;-64
2022/08/13 11:41:20;;;;;;;11.07;7.07;;;35.20;87.10;;;;;;5054889;28;20021;-64
2022/08/13 11:43:48;;;;;;;14.57;7.78;;;34.80;87.10;;;;;;5054494;28;20056;-65
2022/08/13 11:46:14;;;;;;;9.63;7.30;;;34.90;86.90;;;;;;5054201;28;20390;-64
2022/08/13 11:48:41;;;;;;;12.70;7.10;;;34.70;87.00;;;;;;5054787;28;20390;-64
2022/08/13 11:51:07;;;;;;;10.70;7.20;;;34.50;87.50;;;;;;5054605;28;20040;-64
2022/08/13 11:53:33;;;;;;;9.73;6.85;;;34.80;88.50;;;;;;5054188;28;20412;-63
2022/08/13 11:55:59;;;;;;;12.25;7.63;;;35.00;88.20;;;;;;5054500;28;20401;-63
2022/08/13 11:58:25;;;;;;;11.10;6.60;;;35.10;87.60;;;;;;5054453;28;20503;-64
2022/08/13 12:00:53;;;;;;;10.27;7.05;;;35.20;87.30;;;;;;5054451;28;20473;-64
2022/08/13 12:03:19;;;;;;;12.90;7.82;;;35.00;88.10;;;;;;5054369;28;20485;-64
2022/08/13 12:05:45;;;;;;;10.40;7.60;;;35.10;87.20;;;;;;5054389;28;20108;-64
2022/08/13 12:08:15;;;;;;;11.77;7.07;;;35.20;87.70;;;;;;5053860;28;20053;-64
2022/08/13 12:10:41;;;;;;;10.32;7.32;;;35.30;88.00;;;;;;5054319;28;20508;-63
2022/08/13 12:13:07;;;;;;;10.15;7.57;;;35.30;87.40;;;;;;5054153;28;20029;-64
2022/08/13 12:15:32;;;;;;;8.88;7.00;;;35.20;87.10;;;;;;5054185;28;20386;-64
2022/08/13 12:17:58;;;;;;;12.45;7.57;;;35.20;87.90;;;;;;5054115;28;20103;-64
2022/08/13 12:20:24;;;;;;;10.63;7.00;;;35.00;87.50;;;;;;5053976;28;20029;-64
2022/08/13 12:22:52;;;;;;;12.07;7.38;;;35.00;87.00;;;;;;5053724;28;20029;-64
2022/08/13 12:25:23;;;;;;;8.73;6.82;;;35.20;87.10;;;;;;5052693;28;20485;-64
2022/08/13 12:27:49;;;;;;;10.57;7.20;;;35.10;88.70;;;;;;5053928;28;20033;-64
2022/08/13 12:30:15;;;;;;;10.07;7.07;;;35.10;87.90;;;;;;5053897;28;20070;-64
2022/08/13 12:32:40;;;;;;;12.18;7.18;;;35.20;88.20;;;;;;5053743;28;20029;-64
2022/08/13 12:35:07;;;;;;;10.77;6.53;;;35.20;88.00;;;;;;5052535;28;20509;-64
2022/08/13 12:37:33;;;;;;;12.02;8.00;;;35.30;87.90;;;;;;5053341;28;20029;-63
2022/08/13 12:39:59;;;;;;;15.02;7.10;;;35.40;87.80;;;;;;5053529;28;20516;-64
2022/08/13 12:42:27;;;;;;;11.30;7.07;;;35.40;88.10;;;;;;5053583;28;20017;-64
2022/08/13 12:44:53;;;;;;;12.23;7.30;;;35.40;87.80;;;;;;5053358;28;20127;-63
2022/08/13 12:47:19;;;;;;;10.35;7.20;;;35.50;87.10;;;;;;5053564;28;20095;-64
2022/08/13 12:49:45;;;;;;;11.25;6.88;;;34.90;87.60;;;;;;5053545;28;20109;-64
2022/08/13 12:52:11;;;;;;;9.10;6.93;;;34.90;88.10;;;;;;5051835;28;20017;-64
2022/08/13 12:54:36;;;;;;;11.38;7.13;;;34.90;88.90;;;;;;5053401;28;20056;-64
2022/08/13 12:57:03;;;;;;;8.88;7.15;;;35.00;88.50;;;;;;5053339;28;20021;-64
2022/08/13 12:59:28;;;;;;;7.10;6.32;;;35.00;87.90;;;;;;5052322;28;20063;-64
2022/08/13 13:01:54;;;;;;;9.50;6.75;;;35.00;88.10;;;;;;5053395;28;20025;-64
2022/08/13 13:04:22;;;;;;;9.98;7.60;;;35.00;88.30;;;;;;5053118;28;20492;-64